sensor_id;sensor_type;location;lat;lon;timestamp;pressure;altitude;pressure_sealevel;temperature;humidity
39793;BME280;26080;42.264;24.536;2023-02-13T00:00:29;101239.22;;;0.99;100.00
39793;BME280;26080;42.264;24.536;2023-02-13T00:02:54;101245.06;;;0.92;100.00
39793;BME280;26080;42.264;24.536;2023-02-13T00:05:20;101248.50;;;0.92;100.00
39793;BME280;26080;42.264;24.536;2023-02-13T00:07:45;101252.69;;;0.85;100.00
39793;BME280;26080;42.264;24.536;2023-02-13T00:10:11;101251.41;;;1.06;100.00
39793;BME280;26080;42.264;24.536;2023-02-13T00:12:37;101252.41;;;1.11;100.00
39793;BME280;26080;42.264;24.536;2023-02-13T00:15:06;101260.03;;;1.06;100.00
39793;BME280;26080;42.264;24.536;2023-02-13T00:17:31;101232.06;;;0.87;100.00
39793;BME280;26080;42.264;24.536;2023-02-13T00:19:57;101263.34;;;1.01;100.00
39793;BME280;26080;42.264;24.536;2023-02-13T00:22:23;101237.00;;;0.78;100.00
39793;BME280;26080;42.264;24.536;2023-02-13T00:24:49;101247.53;;;0.85;100.00
39793;BME280;26080;42.264;24.536;2023-02-13T00:27:15;101261.94;;;0.77;100.00
39793;BME280;26080;42.264;24.536;2023-02-13T00:29:40;101267.94;;;0.76;100.00
39793;BME280;26080;42.264;24.536;2023-02-13T00:32:06;101263.53;;;0.72;100.00
39793;BME280;26080;42.264;24.536;2023-02-13T00:34:31;101262.53;;;0.67;100.00
39793;BME280;26080;42.264;24.536;2023-02-13T00:36:57;101275.28;;;0.59;100.00
39793;BME280;26080;42.264;24.536;2023-02-13T00:39:22;101263.25;;;0.60;100.00
39793;BME280;26080;42.264;24.536;2023-02-13T00:41:47;101275.25;;;0.58;100.00
39793;BME280;26080;42.264;24.536;2023-02-13T00:44:13;101270.59;;;0.45;100.00
39793;BME280;26080;42.264;24.536;2023-02-13T00:46:38;101268.00;;;0.43;100.00
39793;BME280;26080;42.264;24.536;2023-02-13T00:49:05;101258.56;;;0.44;100.00
39793;BME280;26080;42.264;24.536;2023-02-13T00:51:31;101269.72;;;0.43;100.00
39793;BME280;26080;42.264;24.536;2023-02-13T00:53:57;101253.88;;;0.29;100.00
39793;BME280;26080;42.264;24.536;2023-02-13T00:56:22;101266.75;;;0.27;100.00
39793;BME280;26080;42.264;24.536;2023-02-13T00:58:48;101260.84;;;0.33;100.00
39793;BME280;26080;42.264;24.536;2023-02-13T01:01:13;101272.03;;;0.34;100.00
39793;BME280;26080;42.264;24.536;2023-02-13T01:03:39;101278.28;;;0.42;100.00
39793;BME280;26080;42.264;24.536;2023-02-13T01:06:05;101279.97;;;0.41;100.00
39793;BME280;26080;42.264;24.536;2023-02-13T01:08:30;101268.00;;;0.43;100.00
39793;BME280;26080;42.264;24.536;2023-02-13T01:10:56;101265.53;;;0.48;100.00
39793;BME280;26080;42.264;24.536;2023-02-13T01:13:22;101263.72;;;0.44;100.00
39793;BME280;26080;42.264;24.536;2023-02-13T01:15:47;101239.50;;;0.39;100.00
39793;BME280;26080;42.264;24.536;2023-02-13T01:18:15;101270.03;;;0.56;100.00
39793;BME280;26080;42.264;24.536;2023-02-13T01:20:41;101245.53;;;0.39;100.00
39793;BME280;26080;42.264;24.536;2023-02-13T01:23:08;101262.19;;;0.52;100.00
39793;BME280;26080;42.264;24.536;2023-02-13T01:25:34;101265.59;;;0.51;100.00
39793;BME280;26080;42.264;24.536;2023-02-13T01:27:59;101260.38;;;0.48;100.00
39793;BME280;26080;42.264;24.536;2023-02-13T01:30:24;101271.69;;;0.54;100.00
39793;BME280;26080;42.264;24.536;2023-02-13T01:32:50;101272.66;;;0.58;100.00
39793;BME280;26080;42.264;24.536;2023-02-13T01:35:16;101263.22;;;0.58;100.00
39793;BME280;26080;42.264;24.536;2023-02-13T01:37:42;101269.38;;;0.65;100.00
39793;BME280;26080;42.264;24.536;2023-02-13T01:40:10;101275.38;;;0.64;100.00
39793;BME280;26080;42.264;24.536;2023-02-13T01:42:36;101273.53;;;0.58;100.00
39793;BME280;26080;42.264;24.536;2023-02-13T01:47:47;101282.28;;;0.65;100.00
39793;BME280;26080;42.264;24.536;2023-02-13T01:50:54;101281.28;;;0.60;100.00
39793;BME280;26080;42.264;24.536;2023-02-13T01:53:29;101287.31;;;0.61;100.00
39793;BME280;26080;42.264;24.536;2023-02-13T01:56:03;101284.84;;;0.65;100.00
39793;BME280;26080;42.264;24.536;2023-02-13T01:58:32;101263.03;;;0.52;100.00
39793;BME280;26080;42.264;24.536;2023-02-13T02:01:00;101235.19;;;0.38;100.00
39793;BME280;26080;42.264;24.536;2023-02-13T02:05:56;101286.69;;;0.69;100.00
39793;BME280;26080;42.264;24.536;2023-02-13T02:08:24;101254.69;;;0.61;100.00
39793;BME280;26080;42.264;24.536;2023-02-13T02:10:50;101286.03;;;0.78;100.00
39793;BME280;26080;42.264;24.536;2023-02-13T02:13:18;101280.06;;;0.80;100.00
39793;BME280;26080;42.264;24.536;2023-02-13T02:15:45;101291.97;;;0.75;100.00
39793;BME280;26080;42.264;24.536;2023-02-13T02:18:17;101287.78;;;0.80;100.00
39793;BME280;26080;42.264;24.536;2023-02-13T02:40:19;101308.50;;;0.49;100.00
39793;BME280;26080;42.264;24.536;2023-02-13T02:45:50;101304.47;;;0.58;100.00
39793;BME280;26080;42.264;24.536;2023-02-13T02:48:28;101310.16;;;0.45;100.00
39793;BME280;26080;42.264;24.536;2023-02-13T02:54:05;101321.78;;;0.29;100.00
39793;BME280;26080;42.264;24.536;2023-02-13T02:56:53;101316.97;;;0.12;100.00
39793;BME280;26080;42.264;24.536;2023-02-13T02:59:21;101316.59;;;-0.02;100.00
39793;BME280;26080;42.264;24.536;2023-02-13T03:02:07;101329.59;;;-0.27;100.00
39793;BME280;26080;42.264;24.536;2023-02-13T03:04:55;101331.38;;;-0.55;100.00
39793;BME280;26080;42.264;24.536;2023-02-13T03:07:42;101295.00;;;-0.67;100.00
39793;BME280;26080;42.264;24.536;2023-02-13T03:10:16;101341.59;;;-0.58;100.00
39793;BME280;26080;42.264;24.536;2023-02-13T03:13:06;101335.88;;;-0.76;100.00
39793;BME280;26080;42.264;24.536;2023-02-13T03:16:00;101335.69;;;-0.82;100.00
39793;BME280;26080;42.264;24.536;2023-02-13T03:18:52;101332.25;;;-1.10;100.00
39793;BME280;26080;42.264;24.536;2023-02-13T03:24:42;101344.09;;;-1.15;100.00
39793;BME280;26080;42.264;24.536;2023-02-13T03:38:45;101352.16;;;-1.30;100.00
39793;BME280;26080;42.264;24.536;2023-02-13T03:41:18;101333.31;;;-1.30;100.00
39793;BME280;26080;42.264;24.536;2023-02-13T03:46:52;101342.44;;;-1.38;100.00
39793;BME280;26080;42.264;24.536;2023-02-13T03:49:22;101351.72;;;-1.43;100.00
39793;BME280;26080;42.264;24.536;2023-02-13T03:54:50;101321.13;;;-1.36;100.00
39793;BME280;26080;42.264;24.536;2023-02-13T03:57:36;101351.63;;;-1.21;100.00
39793;BME280;26080;42.264;24.536;2023-02-13T04:00:24;101348.13;;;-1.23;100.00
39793;BME280;26080;42.264;24.536;2023-02-13T04:03:15;101352.94;;;-1.32;100.00
39793;BME280;26080;42.264;24.536;2023-02-13T04:06:08;101353.03;;;-1.29;100.00
39793;BME280;26080;42.264;24.536;2023-02-13T04:08:35;101345.25;;;-1.32;100.00
39793;BME280;26080;42.264;24.536;2023-02-13T04:11:14;101355.53;;;-1.32;100.00
39793;BME280;26080;42.264;24.536;2023-02-13T04:13:56;101351.41;;;-1.27;100.00
39793;BME280;26080;42.264;24.536;2023-02-13T04:16:35;101353.03;;;-1.29;100.00
39793;BME280;26080;42.264;24.536;2023-02-13T04:19:04;101354.75;;;-1.30;100.00
39793;BME280;26080;42.264;24.536;2023-02-13T04:21:34;101365.13;;;-1.27;100.00
39793;BME280;26080;42.264;24.536;2023-02-13T04:24:01;101354.69;;;-1.31;100.00
39793;BME280;26080;42.264;24.536;2023-02-13T04:26:40;101355.56;;;-1.31;100.00
39793;BME280;26080;42.264;24.536;2023-02-13T04:29:07;101358.75;;;-1.38;100.00
39793;BME280;26080;42.264;24.536;2023-02-13T04:31:32;101360.25;;;-1.44;100.00
39793;BME280;26080;42.264;24.536;2023-02-13T04:33:59;101357.69;;;-1.44;100.00
39793;BME280;26080;42.264;24.536;2023-02-13T04:36:25;101351.78;;;-1.66;100.00
39793;BME280;26080;42.264;24.536;2023-02-13T04:38:50;101359.97;;;-2.01;100.00
39793;BME280;26080;42.264;24.536;2023-02-13T04:41:16;101323.00;;;-2.29;100.00
39793;BME280;26080;42.264;24.536;2023-02-13T04:43:42;101351.06;;;-2.33;100.00
39793;BME280;26080;42.264;24.536;2023-02-13T04:46:07;101361.72;;;-2.00;100.00
39793;BME280;26080;42.264;24.536;2023-02-13T04:48:36;101359.72;;;-2.08;100.00
39793;BME280;26080;42.264;24.536;2023-02-13T04:51:02;101355.31;;;-2.12;100.00
39793;BME280;26080;42.264;24.536;2023-02-13T04:53:27;101363.16;;;-2.07;100.00
39793;BME280;26080;42.264;24.536;2023-02-13T04:55:53;101357.47;;;-2.22;100.00
39793;BME280;26080;42.264;24.536;2023-02-13T04:58:18;101333.53;;;-2.45;100.00
39793;BME280;26080;42.264;24.536;2023-02-13T05:00:44;101377.91;;;-2.25;100.00
39793;BME280;26080;42.264;24.536;2023-02-13T05:03:11;101367.75;;;-2.45;100.00
39793;BME280;26080;42.264;24.536;2023-02-13T05:05:37;101362.44;;;-2.49;100.00
39793;BME280;26080;42.264;24.536;2023-02-13T05:08:04;101369.50;;;-2.44;100.00
39793;BME280;26080;42.264;24.536;2023-02-13T05:10:30;101370.75;;;-2.10;100.00
39793;BME280;26080;42.264;24.536;2023-02-13T05:12:55;101380.75;;;-2.18;100.00
39793;BME280;26080;42.264;24.536;2023-02-13T05:15:21;101367.28;;;-2.34;100.00
39793;BME280;26080;42.264;24.536;2023-02-13T05:17:48;101382.88;;;-2.30;100.00
39793;BME280;26080;42.264;24.536;2023-02-13T05:20:14;101375.06;;;-2.33;100.00
39793;BME280;26080;42.264;24.536;2023-02-13T05:22:47;101376.66;;;-2.35;100.00
39793;BME280;26080;42.264;24.536;2023-02-13T05:25:33;101387.28;;;-2.26;100.00
39793;BME280;26080;42.264;24.536;2023-02-13T05:27:58;101387.63;;;-2.39;100.00
39793;BME280;26080;42.264;24.536;2023-02-13T05:30:24;101378.09;;;-2.43;100.00
39793;BME280;26080;42.264;24.536;2023-02-13T05:32:50;101381.47;;;-2.44;100.00
39793;BME280;26080;42.264;24.536;2023-02-13T05:35:17;101382.09;;;-2.50;100.00
39793;BME280;26080;42.264;24.536;2023-02-13T05:37:42;101387.38;;;-2.47;100.00
39793;BME280;26080;42.264;24.536;2023-02-13T05:40:09;101387.97;;;-2.52;100.00
39793;BME280;26080;42.264;24.536;2023-02-13T05:42:35;101397.34;;;-2.32;100.00
39793;BME280;26080;42.264;24.536;2023-02-13T05:45:00;101409.97;;;-2.14;100.00
39793;BME280;26080;42.264;24.536;2023-02-13T05:47:26;101407.47;;;-2.13;100.00
39793;BME280;26080;42.264;24.536;2023-02-13T05:49:51;101411.00;;;-2.09;100.00
39793;BME280;26080;42.264;24.536;2023-02-13T05:52:16;101406.59;;;-2.13;100.00
39793;BME280;26080;42.264;24.536;2023-02-13T05:54:43;101357.09;;;-2.55;100.00
39793;BME280;26080;42.264;24.536;2023-02-13T05:57:08;101416.44;;;-2.01;100.00
39793;BME280;26080;42.264;24.536;2023-02-13T05:59:34;101412.25;;;-1.99;100.00
39793;BME280;26080;42.264;24.536;2023-02-13T06:01:59;101368.59;;;-2.22;100.00
39793;BME280;26080;42.264;24.536;2023-02-13T06:04:25;101405.72;;;-1.91;100.00
39793;BME280;26080;42.264;24.536;2023-02-13T06:06:50;101392.03;;;-1.90;100.00
39793;BME280;26080;42.264;24.536;2023-02-13T06:09:16;101401.13;;;-1.76;100.00
39793;BME280;26080;42.264;24.536;2023-02-13T06:11:41;101404.50;;;-1.77;100.00
39793;BME280;26080;42.264;24.536;2023-02-13T06:14:07;101417.50;;;-1.72;100.00
39793;BME280;26080;42.264;24.536;2023-02-13T06:16:33;101410.78;;;-1.69;100.00
39793;BME280;26080;42.264;24.536;2023-02-13T06:18:58;101413.84;;;-1.55;100.00
39793;BME280;26080;42.264;24.536;2023-02-13T06:21:24;101426.97;;;-1.47;100.00
39793;BME280;26080;42.264;24.536;2023-02-13T06:23:49;101421.94;;;-1.44;100.00
39793;BME280;26080;42.264;24.536;2023-02-13T06:26:15;101422.75;;;-1.45;100.00
39793;BME280;26080;42.264;24.536;2023-02-13T06:28:40;101419.47;;;-1.41;100.00
39793;BME280;26080;42.264;24.536;2023-02-13T06:31:06;101422.56;;;-1.26;100.00
39793;BME280;26080;42.264;24.536;2023-02-13T06:33:31;101413.00;;;-1.05;100.00
39793;BME280;26080;42.264;24.536;2023-02-13T06:35:57;101428.22;;;-0.85;100.00
39793;BME280;26080;42.264;24.536;2023-02-13T06:38:23;101433.75;;;-0.73;100.00
39793;BME280;26080;42.264;24.536;2023-02-13T06:40:49;101432.16;;;-0.70;100.00
39793;BME280;26080;42.264;24.536;2023-02-13T06:43:15;101435.28;;;-0.53;100.00
39793;BME280;26080;42.264;24.536;2023-02-13T06:45:40;101439.78;;;-0.46;100.00
39793;BME280;26080;42.264;24.536;2023-02-13T06:48:06;101438.13;;;-0.44;100.00
39793;BME280;26080;42.264;24.536;2023-02-13T06:50:32;101437.94;;;-0.50;100.00
39793;BME280;26080;42.264;24.536;2023-02-13T06:52:59;101428.88;;;-0.66;100.00
39793;BME280;26080;42.264;24.536;2023-02-13T06:55:25;101444.44;;;-0.61;100.00
39793;BME280;26080;42.264;24.536;2023-02-13T06:57:51;101436.78;;;-0.60;100.00
39793;BME280;26080;42.264;24.536;2023-02-13T07:00:17;101429.94;;;-0.31;100.00
39793;BME280;26080;42.264;24.536;2023-02-13T07:02:45;101436.97;;;0.02;100.00
39793;BME280;26080;42.264;24.536;2023-02-13T07:05:11;101432.09;;;0.13;100.00
39793;BME280;26080;42.264;24.536;2023-02-13T07:07:38;101436.91;;;0.31;100.00
39793;BME280;26080;42.264;24.536;2023-02-13T07:10:06;101436.47;;;0.45;100.00
39793;BME280;26080;42.264;24.536;2023-02-13T07:12:32;101432.13;;;0.43;100.00
39793;BME280;26080;42.264;24.536;2023-02-13T07:14:58;101437.69;;;0.58;100.00
39793;BME280;26080;42.264;24.536;2023-02-13T07:17:23;101427.69;;;0.70;100.00
39793;BME280;26080;42.264;24.536;2023-02-13T07:19:48;101424.44;;;0.77;100.00
39793;BME280;26080;42.264;24.536;2023-02-13T07:22:14;101417.53;;;0.76;100.00
39793;BME280;26080;42.264;24.536;2023-02-13T07:24:39;101412.53;;;0.82;100.00
39793;BME280;26080;42.264;24.536;2023-02-13T07:27:05;101416.97;;;0.88;100.00
39793;BME280;26080;42.264;24.536;2023-02-13T07:29:30;101412.75;;;0.92;100.00
39793;BME280;26080;42.264;24.536;2023-02-13T07:31:56;101418.00;;;0.95;100.00
39793;BME280;26080;42.264;24.536;2023-02-13T07:34:21;101416.56;;;1.06;100.00
39793;BME280;26080;42.264;24.536;2023-02-13T07:36:47;101413.56;;;1.24;100.00
39793;BME280;26080;42.264;24.536;2023-02-13T07:39:12;101387.50;;;1.13;100.00
39793;BME280;26080;42.264;24.536;2023-02-13T07:41:38;101414.72;;;1.36;100.00
39793;BME280;26080;42.264;24.536;2023-02-13T07:44:04;101412.75;;;1.25;100.00
39793;BME280;26080;42.264;24.536;2023-02-13T07:46:29;101411.22;;;1.34;100.00
39793;BME280;26080;42.264;24.536;2023-02-13T07:48:55;101412.56;;;1.55;100.00
39793;BME280;26080;42.264;24.536;2023-02-13T07:51:20;101407.59;;;1.64;100.00
39793;BME280;26080;42.264;24.536;2023-02-13T07:53:50;101421.97;;;1.90;100.00
39793;BME280;26080;42.264;24.536;2023-02-13T07:56:15;101416.88;;;1.93;100.00
39793;BME280;26080;42.264;24.536;2023-02-13T07:58:41;101419.47;;;1.93;100.00
39793;BME280;26080;42.264;24.536;2023-02-13T08:01:10;101416.13;;;1.99;100.00
39793;BME280;26080;42.264;24.536;2023-02-13T08:03:36;101420.75;;;2.14;100.00
39793;BME280;26080;42.264;24.536;2023-02-13T08:06:03;101408.63;;;2.10;100.00
39793;BME280;26080;42.264;24.536;2023-02-13T08:08:28;101420.88;;;2.20;100.00
39793;BME280;26080;42.264;24.536;2023-02-13T08:10:54;101410.03;;;2.37;100.00
39793;BME280;26080;42.264;24.536;2023-02-13T08:13:39;101393.50;;;2.31;100.00
39793;BME280;26080;42.264;24.536;2023-02-13T08:16:05;101405.88;;;2.46;100.00
39793;BME280;26080;42.264;24.536;2023-02-13T08:18:30;101405.59;;;2.32;100.00
39793;BME280;26080;42.264;24.536;2023-02-13T08:20:56;101395.34;;;2.35;100.00
39793;BME280;26080;42.264;24.536;2023-02-13T08:23:21;101398.97;;;2.46;100.00
39793;BME280;26080;42.264;24.536;2023-02-13T08:25:47;101396.47;;;2.49;100.00
39793;BME280;26080;42.264;24.536;2023-02-13T08:28:14;101366.97;;;2.40;100.00
39793;BME280;26080;42.264;24.536;2023-02-13T08:30:40;101382.91;;;2.62;100.00
39793;BME280;26080;42.264;24.536;2023-02-13T08:33:05;101385.59;;;2.68;100.00
39793;BME280;26080;42.264;24.536;2023-02-13T08:35:31;101383.91;;;2.71;100.00
39793;BME280;26080;42.264;24.536;2023-02-13T08:38:01;101391.97;;;2.87;100.00
39793;BME280;26080;42.264;24.536;2023-02-13T08:40:26;101391.03;;;2.84;100.00
39793;BME280;26080;42.264;24.536;2023-02-13T08:42:58;101390.91;;;2.75;100.00
39793;BME280;26080;42.264;24.536;2023-02-13T08:45:24;101366.66;;;2.70;100.00
39793;BME280;26080;42.264;24.536;2023-02-13T08:47:50;101386.19;;;3.02;100.00
39793;BME280;26080;42.264;24.536;2023-02-13T08:50:15;101383.72;;;3.10;100.00
39793;BME280;26080;42.264;24.536;2023-02-13T08:52:40;101372.13;;;3.42;99.12
39793;BME280;26080;42.264;24.536;2023-02-13T08:55:06;101363.47;;;3.40;99.78
39793;BME280;26080;42.264;24.536;2023-02-13T08:57:31;101376.44;;;3.42;100.00
39793;BME280;26080;42.264;24.536;2023-02-13T08:59:57;101378.13;;;3.40;100.00
39793;BME280;26080;42.264;24.536;2023-02-13T09:02:23;101378.94;;;3.36;100.00
39793;BME280;26080;42.264;24.536;2023-02-13T09:04:48;101373.09;;;3.47;99.36
39793;BME280;26080;42.264;24.536;2023-02-13T09:07:14;101373.19;;;3.55;100.00
39793;BME280;26080;42.264;24.536;2023-02-13T09:09:39;101357.81;;;3.67;97.75
39793;BME280;26080;42.264;24.536;2023-02-13T09:12:05;101356.16;;;3.72;97.58
39793;BME280;26080;42.264;24.536;2023-02-13T09:14:30;101370.19;;;3.86;97.91
39793;BME280;26080;42.264;24.536;2023-02-13T09:16:56;101372.19;;;4.10;96.17
39793;BME280;26080;42.264;24.536;2023-02-13T09:19:21;101361.00;;;4.13;95.61
39793;BME280;26080;42.264;24.536;2023-02-13T09:21:47;101355.72;;;4.07;96.86
39793;BME280;26080;42.264;24.536;2023-02-13T09:24:12;101351.41;;;4.07;97.49
39793;BME280;26080;42.264;24.536;2023-02-13T09:26:38;101351.38;;;4.06;96.30
39793;BME280;26080;42.264;24.536;2023-02-13T09:29:03;101351.41;;;4.09;96.20
39793;BME280;26080;42.264;24.536;2023-02-13T09:31:29;101340.19;;;4.08;95.35
39793;BME280;26080;42.264;24.536;2023-02-13T09:33:54;101340.34;;;4.22;96.16
39793;BME280;26080;42.264;24.536;2023-02-13T09:36:21;101338.59;;;4.23;95.44
39793;BME280;26080;42.264;24.536;2023-02-13T09:38:51;101333.41;;;4.23;93.97
39793;BME280;26080;42.264;24.536;2023-02-13T09:41:21;101327.38;;;4.24;93.35
39793;BME280;26080;42.264;24.536;2023-02-13T09:46:27;101324.38;;;4.69;90.22
39793;BME280;26080;42.264;24.536;2023-02-13T09:48:56;101320.84;;;4.64;90.86
39793;BME280;26080;42.264;24.536;2023-02-13T09:51:24;101306.97;;;4.56;90.48
39793;BME280;26080;42.264;24.536;2023-02-13T09:54:06;101310.59;;;4.76;91.21
39793;BME280;26080;42.264;24.536;2023-02-13T09:59:01;101300.31;;;4.90;90.20
39793;BME280;26080;42.264;24.536;2023-02-13T10:01:33;101296.91;;;4.95;90.62
39793;BME280;26080;42.264;24.536;2023-02-13T10:06:35;101262.38;;;5.12;88.83
39793;BME280;26080;42.264;24.536;2023-02-13T10:09:28;101271.13;;;5.30;90.21
39793;BME280;26080;42.264;24.536;2023-02-13T10:18:04;101236.50;;;5.30;85.90
39793;BME280;26080;42.264;24.536;2023-02-13T10:20:38;101254.75;;;5.42;85.84
39793;BME280;26080;42.264;24.536;2023-02-13T10:25:50;101236.59;;;5.48;86.34
39793;BME280;26080;42.264;24.536;2023-02-13T10:28:27;101221.03;;;5.54;84.75
39793;BME280;26080;42.264;24.536;2023-02-13T10:30:58;101231.47;;;5.73;84.64
39793;BME280;26080;42.264;24.536;2023-02-13T10:33:48;101220.25;;;5.81;82.91
39793;BME280;26080;42.264;24.536;2023-02-13T10:36:20;101222.03;;;5.93;84.89
39793;BME280;26080;42.264;24.536;2023-02-13T10:38:59;101214.25;;;5.91;83.13
39793;BME280;26080;42.264;24.536;2023-02-13T10:41:48;101211.56;;;5.84;82.58
39793;BME280;26080;42.264;24.536;2023-02-13T10:50:25;101189.97;;;6.09;81.72
39793;BME280;26080;42.264;24.536;2023-02-13T10:58:59;101178.69;;;6.62;80.08
39793;BME280;26080;42.264;24.536;2023-02-13T11:03:48;101167.41;;;6.69;78.56
39793;BME280;26080;42.264;24.536;2023-02-13T11:06:24;101163.00;;;6.85;78.20
39793;BME280;26080;42.264;24.536;2023-02-13T11:08:49;101158.69;;;6.86;78.06
39793;BME280;26080;42.264;24.536;2023-02-13T11:17:00;101148.25;;;6.93;76.69
39793;BME280;26080;42.264;24.536;2023-02-13T11:19:47;101132.66;;;6.89;75.48
39793;BME280;26080;42.264;24.536;2023-02-13T11:22:29;101132.63;;;6.92;76.25
39793;BME280;26080;42.264;24.536;2023-02-13T11:24:59;101125.66;;;7.00;75.88
39793;BME280;26080;42.264;24.536;2023-02-13T11:27:34;101122.13;;;7.10;74.86
39793;BME280;26080;42.264;24.536;2023-02-13T11:30:07;101116.88;;;7.19;73.79
39793;BME280;26080;42.264;24.536;2023-02-13T11:32:59;101109.97;;;7.15;73.57
39793;BME280;26080;42.264;24.536;2023-02-13T11:35:31;101120.34;;;7.27;73.74
39793;BME280;26080;42.264;24.536;2023-02-13T11:40:34;101097.72;;;7.32;71.40
39793;BME280;26080;42.264;24.536;2023-02-13T11:43:00;101094.97;;;7.51;68.68
39793;BME280;26080;42.264;24.536;2023-02-13T11:45:26;101087.97;;;7.60;67.76
39793;BME280;26080;42.264;24.536;2023-02-13T11:47:53;101077.59;;;7.56;68.08
39793;BME280;26080;42.264;24.536;2023-02-13T11:50:37;101071.53;;;7.48;69.29
39793;BME280;26080;42.264;24.536;2023-02-13T11:53:13;101072.41;;;7.50;71.01
39793;BME280;26080;42.264;24.536;2023-02-13T11:58:27;101062.75;;;7.61;65.73
39793;BME280;26080;42.264;24.536;2023-02-13T12:04:16;101043.59;;;7.65;65.87
39793;BME280;26080;42.264;24.536;2023-02-13T12:07:19;101038.34;;;7.72;65.72
39793;BME280;26080;42.264;24.536;2023-02-13T12:09:52;101034.88;;;7.72;66.20
39793;BME280;26080;42.264;24.536;2023-02-13T12:12:29;101031.31;;;7.82;66.38
39793;BME280;26080;42.264;24.536;2023-02-13T12:14:57;100993.94;;;7.79;65.06
39793;BME280;26080;42.264;24.536;2023-02-13T12:17:27;101016.41;;;7.95;63.88
39793;BME280;26080;42.264;24.536;2023-02-13T12:19:55;101011.22;;;7.95;64.23
39793;BME280;26080;42.264;24.536;2023-02-13T12:22:47;101009.38;;;8.03;63.09
39793;BME280;26080;42.264;24.536;2023-02-13T12:28:22;101006.69;;;8.11;59.94
39793;BME280;26080;42.264;24.536;2023-02-13T12:52:41;100985.41;;;8.47;56.58
39793;BME280;26080;42.264;24.536;2023-02-13T13:22:58;100945.00;;;8.76;57.36
39793;BME280;26080;42.264;24.536;2023-02-13T13:25:41;100937.31;;;8.67;55.95
39793;BME280;26080;42.264;24.536;2023-02-13T13:28:14;100939.00;;;8.71;56.30
39793;BME280;26080;42.264;24.536;2023-02-13T13:30:42;100898.41;;;8.45;56.50
39793;BME280;26080;42.264;24.536;2023-02-13T13:33:14;100935.38;;;8.81;55.46
39793;BME280;26080;42.264;24.536;2023-02-13T13:41:13;100922.16;;;8.92;56.02
39793;BME280;26080;42.264;24.536;2023-02-13T13:43:55;100918.63;;;8.94;55.46
39793;BME280;26080;42.264;24.536;2023-02-13T13:46:42;100920.38;;;8.94;54.43
39793;BME280;26080;42.264;24.536;2023-02-13T13:49:33;100924.66;;;8.99;54.37
39793;BME280;26080;42.264;24.536;2023-02-13T13:54:48;100912.53;;;8.95;54.08
39793;BME280;26080;42.264;24.536;2023-02-13T14:07:39;100905.75;;;8.82;54.61
39793;BME280;26080;42.264;24.536;2023-02-13T14:31:32;100888.34;;;8.81;53.54
39793;BME280;26080;42.264;24.536;2023-02-13T14:36:41;100886.81;;;8.68;54.14
39793;BME280;26080;42.264;24.536;2023-02-13T14:39:28;100891.25;;;8.59;53.62
39793;BME280;26080;42.264;24.536;2023-02-13T14:44:36;100875.81;;;8.44;53.13
39793;BME280;26080;42.264;24.536;2023-02-13T14:50:33;100882.09;;;8.26;54.53
39793;BME280;26080;42.264;24.536;2023-02-13T14:53:08;100883.97;;;8.17;54.80
39793;BME280;26080;42.264;24.536;2023-02-13T14:55:41;100890.16;;;8.07;54.50
39793;BME280;26080;42.264;24.536;2023-02-13T14:58:22;100883.25;;;8.02;54.80
39793;BME280;26080;42.264;24.536;2023-02-13T15:01:01;100882.47;;;7.94;54.53
39793;BME280;26080;42.264;24.536;2023-02-13T15:03:50;100879.91;;;7.91;56.21
39793;BME280;26080;42.264;24.536;2023-02-13T15:06:31;100871.16;;;7.98;55.73
39793;BME280;26080;42.264;24.536;2023-02-13T15:09:04;100872.88;;;7.98;56.08
39793;BME280;26080;42.264;24.536;2023-02-13T15:11:36;100879.03;;;7.92;55.86
39793;BME280;26080;42.264;24.536;2023-02-13T15:14:33;100881.81;;;7.77;56.51
39793;BME280;26080;42.264;24.536;2023-02-13T15:17:17;100880.25;;;7.61;56.71
39793;BME280;26080;42.264;24.536;2023-02-13T15:19:46;100882.88;;;7.59;57.64
39793;BME280;26080;42.264;24.536;2023-02-13T15:22:24;100883.78;;;7.55;57.87
39793;BME280;26080;42.264;24.536;2023-02-13T15:24:53;100880.31;;;7.55;57.76
39793;BME280;26080;42.264;24.536;2023-02-13T15:27:30;100881.28;;;7.43;58.66
39793;BME280;26080;42.264;24.536;2023-02-13T15:30:03;100884.91;;;7.24;59.03
39793;BME280;26080;42.264;24.536;2023-02-13T15:32:35;100888.56;;;7.06;59.08
39793;BME280;26080;42.264;24.536;2023-02-13T15:35:21;100871.34;;;6.88;59.95
39793;BME280;26080;42.264;24.536;2023-02-13T15:37:47;100880.88;;;6.88;60.59
39793;BME280;26080;42.264;24.536;2023-02-13T15:40:14;100890.44;;;6.86;60.72
39793;BME280;26080;42.264;24.536;2023-02-13T15:42:40;100872.31;;;6.73;60.99
39793;BME280;26080;42.264;24.536;2023-02-13T15:45:13;100882.75;;;6.67;61.48
39793;BME280;26080;42.264;24.536;2023-02-13T15:47:39;100886.25;;;6.63;61.56
39793;BME280;26080;42.264;24.536;2023-02-13T15:50:17;100885.50;;;6.38;62.34
39793;BME280;26080;42.264;24.536;2023-02-13T15:52:44;100886.47;;;6.20;63.64
39793;BME280;26080;42.264;24.536;2023-02-13T15:55:24;100897.75;;;6.15;64.16
39793;BME280;26080;42.264;24.536;2023-02-13T15:57:52;100895.19;;;6.01;64.20
39793;BME280;26080;42.264;24.536;2023-02-13T16:00:32;100896.09;;;5.92;64.99
39793;BME280;26080;42.264;24.536;2023-02-13T16:02:59;100902.16;;;5.84;65.60
39793;BME280;26080;42.264;24.536;2023-02-13T16:05:27;100897.00;;;5.65;66.07
39793;BME280;26080;42.264;24.536;2023-02-13T16:07:56;100910.00;;;5.69;66.43
39793;BME280;26080;42.264;24.536;2023-02-13T16:10:31;100908.28;;;5.17;67.57
39793;BME280;26080;42.264;24.536;2023-02-13T16:12:59;100908.28;;;5.03;68.92